Sect Canales, Puerto Rico
Current Conditions -  °F | °C
As of 2:56 PM on Friday 21 Nov 2014 (Local Time) from TJSJ Reporting Station
Scattered Clouds Scattered Clouds  
Wind Chill: 85°   Ceiling: Unl
Heat Index: 92°   Visibility: 10mi
Dew Point: 74°   Wind: 16mph
Humidity: 69%   Direction: 70°ENE
Pressure: 29.96"   Gusts: 23mph
Location:  18.2339°N, 65.9218°W
Report Text: TJSJ 211856Z 07014G20KT 10SM SCT030 29/23 A2996 RMK AO2 SLP144 T02940233
Loading
Personal Weather Stations






























Interactive Weather Map New forecast layout! Learn more

10-Day Weather Forecast

Advertisements
Track Severe Weather on mobile